SiktMolnbas
>≥ 10km≥ 10km ≥ 2000ft≥ 2000ft
< 10km< 10km < 2000ft< 2000ft
< 8km< 8km < 1500ft< 1500ft
< 5km< 5km < 1000ft< 1000ft
< 3km< 3km < 500ft< 500ft

Nytt 18 jan 2017:

Nytt 17 jan 2017:

ESNQ (22:20 UTC)

Kiruna flygplats

METAR

ESNQ 192220Z AUTO 10001KT 9999 FEW072/// 12/05 Q1015=

TAF

ESNQ 192030Z 1921/1923 04004KT CAVOK=

ESNG (22:20 UTC)

Gällivare (Kavaheden), Lapland Airport

METAR

ESNG 192220Z AUTO 16003KT 9999 NCD 10/02 Q1015=

TAF

ESNG 191730Z 1918/1921 09006KT CAVOK=

ESPA (22:20 UTC)

Luleå Airport (Kallax)

METAR

ESPA 192220Z 00000KT CAVOK 10/04 Q1015=

TAF

ESPA 192030Z 1921/1923 VRB02KT CAVOK=

ESNL (22:20 UTC)

Lycksele flygplats

METAR

ESNL 192220Z AUTO 14003KT 9999 BKN039/// OVC047/// 11/10 Q1015=

TAF

Ingen TAF hittades.

ESNU (22:20 UTC)

Umeå City Airport

METAR

ESNU 192220Z 12002KT CAVOK 13/08 Q1015=

TAF

RACB

ESNU 192030Z 1921/2006 VRB02KT 9999 -RA FEW040 TEMPO 1921/2001 BKN060CB=

ESNO (22:20 UTC)

Örnsköldsvik flygplats

METAR

ESNO 192220Z AUTO 00000KT 9999 OVC059/// 12/07 Q1015=

TAF

ESNO 191730Z 1918/1922 VRB02KT CAVOK=

ESNK (22:20 UTC)

Kramfors-Sollefteå flygplats

METAR

ESNK 192220Z AUTO 13003KT 9999 OVC043/// 11/06 Q1015=

TAF

Ingen TAF hittades.

ESNN (22:20 UTC)

Sundsvall-Härnösands flygplats (Midlanda)

METAR

ESNN 192220Z AUTO 32003KT 9999 NCD 06/05 Q1015=

TAF

ESNN 191730Z 1918/1922 16008KT CAVOK PROB40 1921/1922 0800 BCFG=

ESNZ (22:20 UTC)

Åre Östersund Airport (Frösön)

METAR

ESNZ 192220Z AUTO 19006KT 9999 OVC040/// 11/10 Q1013=

TAF

FG

ESNZ AMD 191912Z 1919/1922 15005KT 9999 BKN015 PROB40 1919/1922 0800 FG VV002=

ESNS (22:20 UTC)

Skellefteå flygplats

METAR

ESNS 192220Z AUTO VRB03KT 9999 R10/P1500N R28///// OVC086/// 12/11 Q1015=

TAF

SHRACB

ESNS 191730Z 1918/1922 15006KT CAVOK TEMPO 1920/1922 SHRA BKN050CB=

ESGT (22:20 UTC)

Trollhättan-Vänersborgs flygplats (Malöga flygplats)

METAR

ESGT 192220Z AUTO 01010KT 9999 FEW034/// BKN160/// BKN200/// 14/11 Q1012=

TAF

ESGT 191730Z 1918/1920 01010KT CAVOK=

ESGG (22:20 UTC)

Göteborg-Landvetter flygplats

METAR

ESGG 192220Z 05007KT CAVOK 16/12 Q1010=

TAF

RACB

ESGG 191730Z 1918/2018 06008KT CAVOK PROB40 2002/2008 RA BKN008 SCT030CB PROB40 2008/2010 BKN012=

ESMT (22:20 UTC)

Halmstads flygplats

METAR

DZ

ESMT 192220Z AUTO 07006KT 9999 -DZ FEW020/// SCT085/// 16/15 Q1009=

TAF

TSCB

ESMT 191712Z 1918/1921 08008KT 9999 SCT030 TEMPO 1918/1919 TSRA SCT020CB TEMPO 1919/1921 BKN012=

ESTA (22:20 UTC)

Ängelholm-Helsingborg flygplats

METAR

RA

ESTA 192220Z AUTO 09005KT 9999 -RA OVC068/// 16/15 Q1009=

TAF

ESTA 192002Z 1921/1923 08008KT 9999 SCT030 TEMPO 1921/1923 BKN012=

ESTL (22:20 UTC)

Ljungbyheds flygplats

METAR

ESTL 192220Z AUTO 00000KT 9999 FEW009/// SCT015/// 16/16 Q1009=

TAF

Ingen TAF hittades.

ESMS (22:20 UTC)

Malmö Airport

METAR

ESMS 192220Z 06008KT 9999 OVC005 14/14 Q1008=

TAF

FGCB

ESMS AMD 192032Z 1920/2018 08010KT 4000 BR BKN006 TEMPO 1920/1922 9999 NSW BKN003 TEMPO 1922/2008 0600 FG BKN003 BECMG 2008/2010 9999 NSW SCT015 TEMPO 2010/2018 SCT020CB=

ESMK (22:20 UTC)

Kristianstad Airport

METAR

RA

ESMK 192220Z AUTO /////KT 4100 RA FEW003/// SCT005/// BKN007/// 15/14 Q1008=

TAF

SHRABRCB

ESMK 191701Z 1918/1920 12005KT 9999 BKN004 TEMPO 1918/1920 2000 SHRA BR SCT004 BKN020CB=

ESDF (22:20 UTC)

Ronneby flygplats

METAR

ESDF 192220Z AUTO 06007KT 9999 BKN006/// OVC024/// 14/14 Q1009=

TAF

Ingen TAF hittades.

ESMQ (22:20 UTC)

Kalmar Airport

METAR

RA

ESMQ 192220Z AUTO VRB03KT 1900 -RA OVC001/// 12/12 Q1009 RERA=

TAF

RAFG

ESMQ AMD 191954Z 1919/1922 01006KT 6000 -RA OVC002 TEMPO 1920/1922 0300 FG=

ESMX (22:20 UTC)

Växjö, Smaland Airport

METAR

RA

ESMX 192220Z AUTO 04005KT 010V070 9999 -RA FEW001/// OVC005/// 15/15 Q1010 RERA REDZ=

TAF

SHRABRCB

ESMX 191730Z 1918/1921 05007KT 9999 BKN020 TEMPO 1918/1921 4000 SHRA BR BKN007 BKN020CB=

ESGJ (22:20 UTC)

Jönköping Airport

METAR

BR

ESGJ 192220Z AUTO 02005KT 3700 BR BKN001/// OVC008/// 13/13 Q1011=

TAF

Ingen TAF hittades.

ESSA (22:20 UTC)

Stockholm-Arlanda flygplats

METAR

ESSA 192220Z 04005KT 8000 NSC 12/12 Q1013 NOSIG=

TAF

ESSA AMD 191919Z 1919/2018 08005KT 9999 BKN040 TEMPO 1919/1921 BKN004=

ESSB (22:20 UTC)

Stockholm-Bromma flygplats

METAR

ESSB 192220Z AUTO 06005KT 9999 FEW072/// 12/11 Q1013=

TAF

ESSB AMD 191823Z 1918/1920 06004KT 9999 FEW005 BKN040 TEMPO 1918/1919 BKN005=

ESKN (22:20 UTC)

Stockholm-Skavsta flygplats

METAR

FG

ESKN 192220Z VRB03KT 9999 MIFG NSC 14/14 Q1012=

TAF

SHRABRCB

ESKN 191730Z 1918/2018 13005KT 9999 SCT025 PROB40 1918/1920 2000 BR BKN004 PROB40 2008/2010 SHRA SCT030CB=

ESSP (22:20 UTC)

Norrköping flygplats

METAR

BR

ESSP 192220Z AUTO 00000KT 9000 BR BKN140/// 13/13 Q1012=

TAF

SHRABRCB

ESSP 191730Z 1918/1920 10005KT 9999 SCT025 PROB40 1918/1919 SHRA BKN006 BKN020CB PROB40 1919/1920 2000 BR BKN004=

ESSL (22:20 UTC)

Linköping - SAAB Flygplats

METAR

ESSL 192220Z AUTO 06004KT 9999 FEW049/// BKN110/// OVC140/// 14/14 Q1012=

TAF

SHRABRCB

ESSL 191930Z 1920/1922 08006KT 9999 SCT030 TEMPO 1920/1922 4000 BR SHRA BKN009 BKN060CB=

ESSV (22:20 UTC)

Visby flygplats

METAR

ESSV 192220Z AUTO 08007KT 9999 FEW110/// 13/09 Q1010=

TAF

ESSV 191730Z 1918/1922 08005KT CAVOK=

ESOW (22:20 UTC)

Stockholm-Västerås flygplats

METAR

ESOW 192220Z AUTO 02003KT 8000 FEW096/// 14/13 Q1013=

TAF

Ingen TAF hittades.

ESOE (22:20 UTC)

Örebro flygplats

METAR

RA

ESOE 192220Z AUTO 02006KT 9999 -RA SCT070/// 15/13 Q1013=

TAF

SHRABRCB

ESOE 192030Z 1921/2006 06009KT CAVOK TEMPO 1921/2001 SHRA BKN060CB PROB40 2001/2006 1400 BR BKN004=

ESOK (22:20 UTC)

Karlstad Airport

METAR

ESOK 192220Z AUTO 01004KT 9999 NCD 10/10 Q1013=

TAF

ESOK 191730Z 1918/1920 05007KT 9999 SCT020=

ESSD (22:20 UTC)

Borlänge, Dala Airport

METAR

ESSD 192220Z AUTO 24004KT 9999 NCD 11/10 Q1014=

TAF

Ingen TAF hittades.

ESGR (22:20 UTC)

Skövde flygplats

METAR

RA

ESGR 192220Z AUTO 03003KT 360V070 8000 -RA SCT045/// BKN072/// OVC094/// 15/14 Q1012 REDZ=

TAF

Ingen TAF hittades.

ESIB (22:20 UTC)

Såtenäs

METAR

ESIB 192220Z AUTO 03007KT 9999 BKN033/// OVC150/// 13/13 Q1012=

TAF

Ingen TAF hittades.

ESNV (22:20 UTC)

Vilhelmina flygplats

METAR

ESNV 192220Z AUTO 00000KT 9999 OVC044/// 09/07 Q1014=

TAF

Ingen TAF hittades.

ESST (22:20 UTC)

Torsby flygplats (Fryklanda)

METAR

BR

ESST 192220Z AUTO 33002KT 0350 R16/P2000N R34/P2000N BR NCD 10/09 Q1014=

TAF

Ingen TAF hittades.

ESUT (22:20 UTC)

Hemavans flygplats

METAR

ESUT 192220Z AUTO 00000KT 9999 FEW059/// OVC084/// 05/04 Q1015=

TAF

Ingen TAF hittades.

ESNX (22:20 UTC)

Arvidsjaur flygplats

METAR

RA

ESNX 192220Z AUTO VRB03KT 9999 -RA OVC068/// 13/09 Q1015 RESHRA=

TAF

ESNX 191730Z 1918/1921 10008KT CAVOK=

ESIA (22:20 UTC)

Karlsborg

METAR

RA

ESIA 192220Z AUTO 03008KT 9999 -RA FEW010/// SCT038/// BKN082/// 14/13 Q1012=

TAF

Ingen TAF hittades.

ESUP (22:20 UTC)

Pajala

METAR

ESUP 192220Z AUTO 09002KT 9999 NCD 09/04 Q1016=

TAF

Ingen TAF hittades.

ESPE (22:20 UTC)

Vidsel

METAR

ESPE 192220Z AUTO VRB02KT 9999 FEW100/// 12/04 Q1015=

TAF

Ingen TAF hittades.

ESCM (22:20 UTC)

Uppsala

METAR

BR

ESCM 192220Z AUTO 09004KT 1700 BR VV002 14/14 Q1014=

TAF

Ingen TAF hittades.

ESKM (22:20 UTC)

Mora/Siljan

METAR

FG

ESKM 192220Z AUTO 00000KT 0250 R16/P2000N R34/0800U FG NCD 07/07 Q1015=

TAF

Ingen TAF hittades.

EKRN (22:20 UTC)

Bornholm Airport

METAR

BR

EKRN 192220Z AUTO 06009KT 3500 BR OVC002/// 11/11 Q1007=

TAF

FG

EKRN AMD 192027Z 1920/1922 06010KT 9999 SCT003 TEMPO 1920/1922 0300 FG BKN001=

EFIV (22:20 UTC)

Ivalo Airport

METAR

EFIV 192220Z AUTO 02003KT 350V090 CAVOK 06/M01 Q1021=

TAF

Ingen TAF hittades.

EFKT (22:20 UTC)

Kittilä Airport

METAR

EFKT 192220Z AUTO 10006KT 070V130 CAVOK 12/04 Q1018=

TAF

Ingen TAF hittades.

EFRO (22:20 UTC)

Rovaniemi Airport

METAR

EFRO 192220Z AUTO 11007KT CAVOK 12/04 Q1017=

TAF

SHRACB

EFRO 192023Z 1921/2021 10009KT CAVOK TEMPO 2010/2018 SHRA FEW025CB TEMPO 2018/2021 6000 -DZ BKN004=

EFKE (22:20 UTC)

Kemi-Tornio Airport

METAR

EFKE 192220Z AUTO 10009KT CAVOK 16/06 Q1015=

TAF

EFKE 192023Z 1921/1924 08004KT CAVOK=

EFKS (22:20 UTC)

Kuusamo Airport

METAR

RA

EFKS 192220Z AUTO 10006KT 070V130 9999 -RA NSC 08/03 Q1020=

TAF

Ingen TAF hittades.

EFOU (22:20 UTC)

Oulu Airport

METAR

EFOU 192220Z AUTO 11006KT CAVOK 15/08 Q1015=

TAF

TSSHRACB

EFOU 192023Z 1921/2021 11006KT CAVOK TEMPO 2010/2021 SHRA SCT025CB PROB30 2014/2021 7000 TSRA=

EFKI (22:20 UTC)

Kajaani Airport

METAR

EFKI 192220Z AUTO 13008KT 100V160 CAVOK 15/06 Q1017=

TAF

EFKI 191723Z 1918/1921 12007KT CAVOK=

EFKK (22:20 UTC)

Kokkola-Pietarsaari/Kruunupyy Airport

METAR

EFKK 192220Z AUTO 19006KT CAVOK 18/07 Q1015=

TAF

CB

EFKK 192033Z 1921/1923 06006KT CAVOK TEMPO 1921/1923 FEW050CB BKN110=

EFVA (22:20 UTC)

Vaasa Airport

METAR

RA

EFVA 192220Z AUTO 24005KT 210V270 9999 -RA OVC083/// 16/09 Q1016=

TAF

CB

EFVA 192033Z 1921/2021 20003KT 9999 OVC097 TEMPO 1921/2012 FEW050CB BKN095 PROB40 2012/2021 FEW050CB BKN095=

EFKU (22:20 UTC)

Kuopio Airport

METAR

EFKU 192220Z AUTO 11004KT 050V160 CAVOK 14/07 Q1018=

TAF

SHRACB

EFKU 192023Z 1921/2021 14009KT CAVOK TEMPO 2020/2021 SHRA SCT050CB=

EFJY (22:20 UTC)

Jyväskylä Airport

METAR

EFJY 192220Z AUTO VRB00KT CAVOK 14/08 Q1018=

TAF

CB

EFJY 192024Z 1921/2021 15005KT CAVOK PROB40 2008/2014 SCT040CB BKN060=

EFTP (22:20 UTC)

Tampere-Pirkkala Airport

METAR

RA

EFTP 192220Z AUTO 13006KT 9999 -RA FEW095 SCT140 17/07 Q1017=

TAF

CB

EFTP 192024Z 1921/2021 13005KT CAVOK PROB30 1921/2005 SCT040CB BKN060=

EFPO (22:20 UTC)

Pori Airport

METAR

EFPO 192220Z AUTO 34004KT CAVOK 15/09 Q1015=

TAF

Ingen TAF hittades.

EFTU (22:20 UTC)

Turku Airport

METAR

EFTU 192220Z AUTO 10007KT CAVOK 18/05 Q1015=

TAF

CB

EFTU 192033Z 1921/2021 11006KT CAVOK PROB30 1921/2003 FEW060CB BKN065=

EFHK (22:20 UTC)

Helsinki-Vantaa Airport

METAR

EFHK 192220Z 07005KT CAVOK 15/07 Q1017 NOSIG=

TAF

Ingen TAF hittades.

EFMA (22:20 UTC)

Mariehamn Airport

METAR

EFMA 192220Z AUTO VRB01KT CAVOK 11/08 Q1014=

TAF

EFMA 192033Z 1921/2006 VRB01KT CAVOK=

EKSB (22:20 UTC)

Sønderborg Airport

METAR

FG

EKSB 192220Z AUTO 04002KT 0500NDV R14/P1500U R32/P1500N FG FEW016/// 13/13 Q1008=

TAF

Ingen TAF hittades.

EKSP (22:20 UTC)

Vojens Airport

METAR

EKSP 192220Z 04008KT 6000 FEW019 SCT140 13/12 Q1008=

TAF

FG

EKSP 192016Z 1921/2021 06005KT 9999 SCT015 BECMG 1922/1924 0100 FG VV001 TEMPO 2000/2007 3000 BR MIFG SCT004 BECMG 2007/2009 9999 NSW SCT018=

EKEB (22:20 UTC)

Esbjerg Airport

METAR

BR

EKEB 192220Z AUTO 04004KT 3400 BR NCD 13/12 Q1009=

TAF

EKEB 191723Z 1918/1922 09009KT 9999 SCT015=

EKYT (22:20 UTC)

Aalborg Airport

METAR

EKYT 192220Z AUTO 02004KT 350V070 9999 SCT220/// 14/12 Q1009=

TAF

EKYT 192008Z 1921/2021 03005KT 9999 SCT020 TEMPO 2000/2006 6000 PROB40 2006/2010 BKN010 BECMG 2006/2009 01010KT=

EKKA (22:28 UTC)

Karup Airport

METAR

EKKA 192228Z AUTO 36001KT 7000 BKN170/// 13/12 Q1009=

TAF

BRCB

EKKA 192016Z 1921/2021 06005KT 9999 FEW020 TEMPO 1921/2006 3000 BR MIFG TEMPO 2010/2018 SCT040CB=

EKBI (22:20 UTC)

Billund Airport

METAR

EKBI 192220Z AUTO 06004KT 9000 FEW150/// 13/12 Q1009=

TAF

FGCB

EKBI 191703Z 1918/2018 08010KT 9999 FEW015 BECMG 1922/2001 3000 BR BKN005 TEMPO 2001/2006 0500 FG BKN002 BECMG 2006/2008 9999 NSW BKN010 BECMG 2008/2010 SCT020 TEMPO 2011/2018 SCT020CB=

EKVD (22:20 UTC)

Kolding Airport

METAR

EKVD 192220Z AUTO 06005KT //// ///////// 13/12 Q1009=

TAF

Ingen TAF hittades.

EKCH (22:20 UTC)

Copenhagen Airport, Kastrup

METAR

EKCH 192220Z 07005KT 9999 FEW009 BKN010 15/14 Q1009 TEMPO BKN008=

TAF

BRCB

EKCH 191703Z 1918/2018 08008KT 9999 SCT018 BECMG 1920/1922 4000 BR BKN006 TEMPO 1922/2007 6000 NSW BKN003 BECMG 2007/2010 9999 NSW SCT015 TEMPO 2010/2018 FEW020CB=

EKRK (22:20 UTC)

Copenhagen Airport, Roskilde

METAR

EKRK 192220Z AUTO 09004KT 060V120 9000 BKN009/// BKN100/// 15/14 Q1008=

TAF

BR

EKRK 192020Z 1921/2006 11008KT 9999 BKN020 BECMG 1921/1922 3000 BR BKN008 TEMPO 1922/2006 6000 NSW BKN003=

ENRY (22:20 UTC)

Moss flygplats, Rygge

METAR

ENRY 192220Z AUTO 35003KT 9999NDV FEW200/// 12/11 Q1014=

TAF

SHRACB

ENRY 191700Z 1918/2018 02008KT 9999 FEW010 BKN030 TEMPO 2006/2018 4000 RA SHRA BKN008 SCT020CB=

ENGM (22:20 UTC)

Oslo flygplats, Gardermoen

METAR

ENGM 192220Z 01003KT 340V040 CAVOK 10/08 Q1014=

TAF

SHRACB

ENGM 191700Z 1918/2018 05005KT 9999 FEW020 BKN040 BECMG 2004/2006 03012KT TEMPO 2007/2018 RA SHRA BKN012 SCT030CB=

ENTO (22:20 UTC)

Sandefjord flygplats, Torp

METAR

ENTO 192220Z AUTO 36005KT 9999 NCD 12/12 Q1013=

TAF

SHRACB

ENTO 191700Z 1918/2018 02008KT 9999 BKN040 BECMG 2002/2004 02015KT TEMPO 2007/2018 4000 RA SHRA BKN008 SCT020CB=

ENCN (22:20 UTC)

Kristiansand flygplats, Kjevik

METAR

ENCN 192220Z AUTO 08002KT 9999 NCD 11/11 Q1012=

TAF

ENCN 191700Z 1918/1922 10008KT CAVOK=

ENZV (22:20 UTC)

Stavanger-Sola flygplats

METAR

ENZV 192220Z VRB02KT CAVOK 12/11 Q1013=

TAF

TCU

ENZV 191700Z 1918/2018 29008KT 9999 FEW030TCU SCT080=

ENHD (22:20 UTC)

Haugesund flygplats, Karmøy

METAR

ENHD 192220Z AUTO 00000KT 9999 NCD 12/09 Q1013=

TAF

ENHD 191700Z 1918/1922 VRB05KT 9999 FEW040=

ENBR (21:50 UTC)

Bergen flygplats, Flesland

METAR

ENBR 192150Z 36005KT CAVOK 13/09 Q1012 RMK WIND 1200FT 33007KT=

TAF

ENBR 191700Z 1918/2018 32008KT 9999 FEW040=

ENKB (22:20 UTC)

Kristiansund flygplats, Kvernberget

METAR

ENKB 192220Z AUTO 29005KT 9999 FEW100/// 11/08 Q1013 RMK WIND 745FT 24006KT=

TAF

ENKB 191700Z 1918/1921 VRB05KT 9999 FEW040 SCT070=

ENRO (22:20 UTC)

Røros flygplats

METAR

ENRO 192220Z AUTO VRB02KT 9999NDV FEW018/// BKN042/// OVC058/// 09/08 Q1014=

TAF

CB

ENRO 191400Z 1915/1920 12008KT 9999 SCT012 BKN020 PROB30 TEMPO 1915/1916 BKN012 SCT025CB=

ENVA (22:20 UTC)

Trondheim flygplats, Værnes

METAR

ENVA 192220Z 12006KT 9999 BKN053 12/09 Q1013 RMK WIND 670FT 15006KT=

TAF

SHRACB

ENVA AMD 191840Z 1918/2018 12008KT 9999 FEW030 SCT060 PROB30 TEMPO 1918/1920 SHRA SCT020CB BECMG 2007/2009 27012KT BECMG 2016/2018 VRB07KT=

ENOL (21:50 UTC)

Ørland flygplats

METAR

ENOL 192150Z 24004KT 9999 FEW035 BKN070 11/09 Q1012=

TAF

BR

ENOL 191700Z 1918/2018 16010KT 9999 FEW025 BKN040 BECMG 1918/1921 24008KT PROB40 2003/2009 3000 BR BKN004 BECMG 2010/2012 34010KT=

ENBN (22:20 UTC)

Brønnøysund flygplats, Brønnøy

METAR

ENBN 192220Z AUTO VRB04KT 9999NDV BKN047/// OVC082/// 11/09 Q1013=

TAF

SHRA

ENBN 191700Z 1918/1921 18008KT 9999 -SHRA BKN040=

ENRA (21:50 UTC)

Mo i Rana flygplats, Røssvoll

METAR

RA

ENRA 192150Z 13006KT 9999 -RA BKN070 12/05 Q1015=

TAF

ENRA 191700Z 1918/1922 32008KT 9999 SCT050=

ENBO (21:50 UTC)

Bodö flygplats

METAR

ENBO 192150Z 17006KT CAVOK 11/06 Q1014 NOSIG=

TAF

CB

ENBO 191700Z 1918/2018 02005KT CAVOK BECMG 1918/1920 09012KT PROB40 TEMPO 2000/2006 SCT020CB BKN040 BECMG 2010/2012 02008KT=

ENAN (22:20 UTC)

Andøya flygplats

METAR

ENAN 192220Z AUTO VRB02KT 9000 NCD 07/05 Q1016=

TAF

BR

ENAN 191700Z 1918/2018 05008KT CAVOK PROB40 1922/2006 3000 BR BKN001 BECMG 2013/2015 04018KT=

ENEV (22:20 UTC)

Harstad-Narvik flygplats

METAR

ENEV 192220Z AUTO 02006KT 9999 SCT200/// 11/05 Q1015 RMK WIND 1400FT 01008KT=

TAF

ENEV 191700Z 1918/1921 33008KT CAVOK=

ENDU (22:20 UTC)

Bardufoss flygplats

METAR

ENDU 192220Z AUTO VRB03KT 9999 NCD 07/03 Q1016 RMK WIND 1100FT 06006KT WIND 2200FT 09012KT=

TAF

ENDU AMD 191850Z 1918/2018 10005KT 9999 FEW030 TEMPO 1918/1922 36010KT=

ENTC (21:50 UTC)

Tromsø flygplats

METAR

ENTC 192150Z 03012KT CAVOK 08/04 Q1017 RMK WIND 2600FT 12008KT=

TAF

ENTC 191700Z 1918/2018 03012KT CAVOK=

ENAT (21:50 UTC)

Alta flygplats

METAR

ENAT 192150Z AUTO 18003KT 150V230 9999 NCD 08/00 Q1021 RMK WIND 700FT 18013KT=

TAF

ENAT 191700Z 1918/1921 11008KT 9999 FEW030=

ENNA (22:20 UTC)

Lakselv flygplats

METAR

ENNA 192220Z AUTO 19014KT 9999 OVC059/// 07/00 Q1022 RMK WIND 1800FT 17021KT=

TAF

ENNA 191700Z 1918/2018 33012KT 9999 SCT030 TEMPO 1918/2018 18008KT=

ENHF (22:20 UTC)

Hammerfest flygplats

METAR

ENHF 192220Z 15004KT 080V220 CAVOK 08/01 Q1020 RMK WIND 1254FT 10009KT=

TAF

ENHF AMD 192119Z 1921/2006 07008KT 9999 FEW040=

ENKR (22:20 UTC)

Kirkenes Airport, Høybuktmoen

METAR

ENKR 192220Z 11008KT CAVOK 01/M02 Q1025 RMK WIND 731FT 09015KT=

TAF

ENKR 192000Z 1921/2006 07012KT 9999 SCT030 TEMPO 1921/1924 13008KT=

ENSB (21:50 UTC)

Svalbard Airport, Longyear

METAR

ENSB 192150Z 23010KT 9999 OVC018 M01/M05 Q1030 RMK WIND 1400FT 25007KT=

TAF

ENSB 191700Z 1918/2018 20012KT 9999 BKN030 TEMPO 1918/2018 36008KT=